sensor_id;sensor_type;location;lat;lon;timestamp;P1;durP1;ratioP1;P2;durP2;ratioP2
11582;SDS011;34299;50.820;4.548;2023-05-27T00:01:05;9.03;;;3.03;;
11582;SDS011;34299;50.820;4.548;2023-05-27T00:03:32;10.23;;;3.00;;
11582;SDS011;34299;50.820;4.548;2023-05-27T00:06:00;7.50;;;3.00;;
11582;SDS011;34299;50.820;4.548;2023-05-27T00:08:27;9.00;;;3.17;;
11582;SDS011;34299;50.820;4.548;2023-05-27T00:10:54;10.43;;;2.33;;
11582;SDS011;34299;50.820;4.548;2023-05-27T00:13:21;10.20;;;2.40;;
11582;SDS011;34299;50.820;4.548;2023-05-27T00:15:49;4.57;;;3.03;;
11582;SDS011;34299;50.820;4.548;2023-05-27T00:18:17;9.67;;;2.70;;
11582;SDS011;34299;50.820;4.548;2023-05-27T00:20:45;11.90;;;2.53;;
11582;SDS011;34299;50.820;4.548;2023-05-27T00:23:13;10.37;;;2.57;;
11582;SDS011;34299;50.820;4.548;2023-05-27T00:25:40;7.00;;;2.47;;
11582;SDS011;34299;50.820;4.548;2023-05-27T00:28:07;5.40;;;2.17;;
11582;SDS011;34299;50.820;4.548;2023-05-27T00:30:34;8.00;;;3.20;;
11582;SDS011;34299;50.820;4.548;2023-05-27T00:33:02;7.83;;;2.80;;
11582;SDS011;34299;50.820;4.548;2023-05-27T00:35:30;10.47;;;3.10;;
11582;SDS011;34299;50.820;4.548;2023-05-27T00:37:58;6.57;;;2.13;;
11582;SDS011;34299;50.820;4.548;2023-05-27T00:40:26;13.37;;;3.10;;
11582;SDS011;34299;50.820;4.548;2023-05-27T00:42:53;12.80;;;3.30;;
11582;SDS011;34299;50.820;4.548;2023-05-27T00:45:21;6.90;;;2.40;;
11582;SDS011;34299;50.820;4.548;2023-05-27T00:47:48;9.57;;;2.63;;
11582;SDS011;34299;50.820;4.548;2023-05-27T00:50:17;8.93;;;2.53;;
11582;SDS011;34299;50.820;4.548;2023-05-27T00:52:45;6.57;;;2.13;;
11582;SDS011;34299;50.820;4.548;2023-05-27T00:55:13;10.73;;;3.67;;
11582;SDS011;34299;50.820;4.548;2023-05-27T00:57:40;7.77;;;3.37;;
11582;SDS011;34299;50.820;4.548;2023-05-27T01:00:09;11.63;;;4.37;;
11582;SDS011;34299;50.820;4.548;2023-05-27T01:02:37;10.50;;;3.33;;
11582;SDS011;34299;50.820;4.548;2023-05-27T01:05:07;8.77;;;3.17;;
11582;SDS011;34299;50.820;4.548;2023-05-27T01:07:36;7.37;;;3.43;;
11582;SDS011;34299;50.820;4.548;2023-05-27T01:10:10;9.40;;;3.20;;
11582;SDS011;34299;50.820;4.548;2023-05-27T01:12:43;10.80;;;3.33;;
11582;SDS011;34299;50.820;4.548;2023-05-27T01:15:11;7.10;;;3.33;;
11582;SDS011;34299;50.820;4.548;2023-05-27T01:17:39;9.37;;;3.27;;
11582;SDS011;34299;50.820;4.548;2023-05-27T01:20:08;14.70;;;3.77;;
11582;SDS011;34299;50.820;4.548;2023-05-27T01:22:38;7.50;;;3.20;;
11582;SDS011;34299;50.820;4.548;2023-05-27T01:25:06;14.13;;;3.67;;
11582;SDS011;34299;50.820;4.548;2023-05-27T01:27:34;10.27;;;3.53;;
11582;SDS011;34299;50.820;4.548;2023-05-27T01:30:01;12.17;;;3.43;;
11582;SDS011;34299;50.820;4.548;2023-05-27T01:32:30;15.37;;;3.80;;
11582;SDS011;34299;50.820;4.548;2023-05-27T01:34:59;8.70;;;3.87;;
11582;SDS011;34299;50.820;4.548;2023-05-27T01:37:29;9.23;;;2.90;;
11582;SDS011;34299;50.820;4.548;2023-05-27T01:39:59;14.40;;;4.20;;
11582;SDS011;34299;50.820;4.548;2023-05-27T01:42:30;7.33;;;3.60;;
11582;SDS011;34299;50.820;4.548;2023-05-27T01:44:57;8.27;;;3.33;;
11582;SDS011;34299;50.820;4.548;2023-05-27T01:47:25;10.40;;;3.60;;
11582;SDS011;34299;50.820;4.548;2023-05-27T01:49:53;8.40;;;4.10;;
11582;SDS011;34299;50.820;4.548;2023-05-27T01:52:20;8.33;;;3.67;;
11582;SDS011;34299;50.820;4.548;2023-05-27T01:54:47;9.57;;;3.57;;
11582;SDS011;34299;50.820;4.548;2023-05-27T01:57:15;13.90;;;4.37;;
11582;SDS011;34299;50.820;4.548;2023-05-27T01:59:43;12.77;;;3.83;;
11582;SDS011;34299;50.820;4.548;2023-05-27T02:02:10;3.57;;;2.70;;
11582;SDS011;34299;50.820;4.548;2023-05-27T02:04:37;6.67;;;3.37;;
11582;SDS011;34299;50.820;4.548;2023-05-27T02:07:05;12.13;;;3.37;;
11582;SDS011;34299;50.820;4.548;2023-05-27T02:09:32;6.30;;;2.20;;
11582;SDS011;34299;50.820;4.548;2023-05-27T02:11:59;16.40;;;3.77;;
11582;SDS011;34299;50.820;4.548;2023-05-27T02:14:28;9.27;;;3.00;;
11582;SDS011;34299;50.820;4.548;2023-05-27T02:16:56;5.73;;;2.80;;
11582;SDS011;34299;50.820;4.548;2023-05-27T02:19:23;13.83;;;3.23;;
11582;SDS011;34299;50.820;4.548;2023-05-27T02:21:50;8.57;;;2.83;;
11582;SDS011;34299;50.820;4.548;2023-05-27T02:24:18;9.87;;;3.20;;
11582;SDS011;34299;50.820;4.548;2023-05-27T02:26:45;8.70;;;3.27;;
11582;SDS011;34299;50.820;4.548;2023-05-27T02:29:12;9.87;;;3.03;;
11582;SDS011;34299;50.820;4.548;2023-05-27T02:31:41;6.47;;;2.50;;
11582;SDS011;34299;50.820;4.548;2023-05-27T02:34:08;7.07;;;3.60;;
11582;SDS011;34299;50.820;4.548;2023-05-27T02:36:35;6.80;;;2.63;;
11582;SDS011;34299;50.820;4.548;2023-05-27T02:39:02;7.07;;;2.80;;
11582;SDS011;34299;50.820;4.548;2023-05-27T02:41:29;7.73;;;2.83;;
11582;SDS011;34299;50.820;4.548;2023-05-27T02:43:56;6.90;;;2.87;;
11582;SDS011;34299;50.820;4.548;2023-05-27T02:46:24;8.80;;;3.00;;
11582;SDS011;34299;50.820;4.548;2023-05-27T02:48:52;6.30;;;2.63;;
11582;SDS011;34299;50.820;4.548;2023-05-27T02:51:20;10.07;;;2.60;;
11582;SDS011;34299;50.820;4.548;2023-05-27T02:53:48;5.00;;;2.60;;
11582;SDS011;34299;50.820;4.548;2023-05-27T02:56:15;8.20;;;4.00;;
11582;SDS011;34299;50.820;4.548;2023-05-27T02:58:42;7.53;;;2.53;;
11582;SDS011;34299;50.820;4.548;2023-05-27T03:01:09;10.63;;;3.43;;
11582;SDS011;34299;50.820;4.548;2023-05-27T03:03:36;5.67;;;3.20;;
11582;SDS011;34299;50.820;4.548;2023-05-27T03:06:05;10.70;;;3.30;;
11582;SDS011;34299;50.820;4.548;2023-05-27T03:08:32;6.53;;;2.87;;
11582;SDS011;34299;50.820;4.548;2023-05-27T03:10:59;12.10;;;3.27;;
11582;SDS011;34299;50.820;4.548;2023-05-27T03:13:27;4.00;;;2.80;;
11582;SDS011;34299;50.820;4.548;2023-05-27T03:15:54;6.70;;;2.60;;
11582;SDS011;34299;50.820;4.548;2023-05-27T03:18:21;8.83;;;2.80;;
11582;SDS011;34299;50.820;4.548;2023-05-27T03:20:48;13.47;;;2.70;;
11582;SDS011;34299;50.820;4.548;2023-05-27T03:23:17;5.27;;;3.20;;
11582;SDS011;34299;50.820;4.548;2023-05-27T03:25:44;7.63;;;3.63;;
11582;SDS011;34299;50.820;4.548;2023-05-27T03:28:12;10.07;;;3.27;;
11582;SDS011;34299;50.820;4.548;2023-05-27T03:30:41;10.10;;;2.80;;
11582;SDS011;34299;50.820;4.548;2023-05-27T03:33:08;8.53;;;3.07;;
11582;SDS011;34299;50.820;4.548;2023-05-27T03:35:36;11.03;;;3.10;;
11582;SDS011;34299;50.820;4.548;2023-05-27T03:38:03;11.20;;;2.47;;
11582;SDS011;34299;50.820;4.548;2023-05-27T03:40:32;10.60;;;2.60;;
11582;SDS011;34299;50.820;4.548;2023-05-27T03:42:59;11.37;;;3.53;;
11582;SDS011;34299;50.820;4.548;2023-05-27T03:45:26;9.43;;;2.27;;
11582;SDS011;34299;50.820;4.548;2023-05-27T03:47:54;6.67;;;3.00;;
11582;SDS011;34299;50.820;4.548;2023-05-27T03:50:21;9.50;;;2.97;;
11582;SDS011;34299;50.820;4.548;2023-05-27T03:52:48;9.23;;;3.63;;
11582;SDS011;34299;50.820;4.548;2023-05-27T03:55:15;4.03;;;2.80;;
11582;SDS011;34299;50.820;4.548;2023-05-27T03:57:44;7.60;;;2.47;;
11582;SDS011;34299;50.820;4.548;2023-05-27T04:00:11;6.67;;;2.70;;
11582;SDS011;34299;50.820;4.548;2023-05-27T04:02:39;8.60;;;3.07;;
11582;SDS011;34299;50.820;4.548;2023-05-27T04:05:07;6.73;;;3.77;;
11582;SDS011;34299;50.820;4.548;2023-05-27T04:07:34;8.97;;;2.50;;
11582;SDS011;34299;50.820;4.548;2023-05-27T04:10:02;4.70;;;2.57;;
11582;SDS011;34299;50.820;4.548;2023-05-27T04:12:29;10.33;;;3.20;;
11582;SDS011;34299;50.820;4.548;2023-05-27T04:14:57;8.67;;;3.70;;
11582;SDS011;34299;50.820;4.548;2023-05-27T04:17:25;14.60;;;4.03;;
11582;SDS011;34299;50.820;4.548;2023-05-27T04:19:52;12.17;;;4.13;;
11582;SDS011;34299;50.820;4.548;2023-05-27T04:22:20;9.97;;;5.17;;
11582;SDS011;34299;50.820;4.548;2023-05-27T04:24:47;11.93;;;5.60;;
11582;SDS011;34299;50.820;4.548;2023-05-27T04:27:14;10.63;;;4.77;;
11582;SDS011;34299;50.820;4.548;2023-05-27T04:29:44;13.90;;;5.13;;
11582;SDS011;34299;50.820;4.548;2023-05-27T04:32:14;9.67;;;4.17;;
11582;SDS011;34299;50.820;4.548;2023-05-27T04:34:42;13.70;;;4.90;;
11582;SDS011;34299;50.820;4.548;2023-05-27T04:37:09;12.57;;;5.30;;
11582;SDS011;34299;50.820;4.548;2023-05-27T04:39:36;13.70;;;5.07;;
11582;SDS011;34299;50.820;4.548;2023-05-27T04:42:11;16.77;;;5.13;;
11582;SDS011;34299;50.820;4.548;2023-05-27T04:44:40;12.93;;;5.00;;
11582;SDS011;34299;50.820;4.548;2023-05-27T04:47:07;11.00;;;5.43;;
11582;SDS011;34299;50.820;4.548;2023-05-27T04:49:36;7.80;;;2.90;;
11582;SDS011;34299;50.820;4.548;2023-05-27T04:52:04;7.07;;;3.17;;
11582;SDS011;34299;50.820;4.548;2023-05-27T04:54:32;7.60;;;2.73;;
11582;SDS011;34299;50.820;4.548;2023-05-27T04:56:59;12.13;;;3.83;;
11582;SDS011;34299;50.820;4.548;2023-05-27T04:59:26;12.63;;;3.37;;
11582;SDS011;34299;50.820;4.548;2023-05-27T05:02:10;12.47;;;3.27;;
11582;SDS011;34299;50.820;4.548;2023-05-27T05:04:47;9.03;;;3.97;;
11582;SDS011;34299;50.820;4.548;2023-05-27T05:07:16;9.40;;;3.83;;
11582;SDS011;34299;50.820;4.548;2023-05-27T05:09:44;13.13;;;4.67;;
11582;SDS011;34299;50.820;4.548;2023-05-27T05:12:12;12.77;;;4.87;;
11582;SDS011;34299;50.820;4.548;2023-05-27T05:14:39;10.50;;;4.07;;
11582;SDS011;34299;50.820;4.548;2023-05-27T05:17:06;15.13;;;4.43;;
11582;SDS011;34299;50.820;4.548;2023-05-27T05:19:33;14.07;;;4.10;;
11582;SDS011;34299;50.820;4.548;2023-05-27T05:22:02;9.60;;;3.97;;
11582;SDS011;34299;50.820;4.548;2023-05-27T05:24:29;14.03;;;4.60;;
11582;SDS011;34299;50.820;4.548;2023-05-27T05:26:56;15.87;;;4.50;;
11582;SDS011;34299;50.820;4.548;2023-05-27T05:29:23;7.97;;;4.03;;
11582;SDS011;34299;50.820;4.548;2023-05-27T05:31:51;7.73;;;3.80;;
11582;SDS011;34299;50.820;4.548;2023-05-27T05:34:18;10.40;;;4.60;;
11582;SDS011;34299;50.820;4.548;2023-05-27T05:36:45;7.93;;;4.07;;
11582;SDS011;34299;50.820;4.548;2023-05-27T05:39:14;14.23;;;5.27;;
11582;SDS011;34299;50.820;4.548;2023-05-27T05:41:41;14.77;;;4.63;;
11582;SDS011;34299;50.820;4.548;2023-05-27T05:44:08;11.10;;;4.87;;
11582;SDS011;34299;50.820;4.548;2023-05-27T05:46:36;11.33;;;4.27;;
11582;SDS011;34299;50.820;4.548;2023-05-27T05:49:03;11.40;;;4.63;;
11582;SDS011;34299;50.820;4.548;2023-05-27T05:51:30;14.40;;;4.90;;
11582;SDS011;34299;50.820;4.548;2023-05-27T05:53:58;7.40;;;4.47;;
11582;SDS011;34299;50.820;4.548;2023-05-27T05:56:27;13.60;;;5.03;;
11582;SDS011;34299;50.820;4.548;2023-05-27T05:58:54;18.27;;;5.20;;
11582;SDS011;34299;50.820;4.548;2023-05-27T06:01:21;11.50;;;5.03;;
11582;SDS011;34299;50.820;4.548;2023-05-27T06:03:48;9.47;;;4.13;;
11582;SDS011;34299;50.820;4.548;2023-05-27T06:06:15;7.67;;;4.23;;
11582;SDS011;34299;50.820;4.548;2023-05-27T06:08:43;12.87;;;4.47;;
11582;SDS011;34299;50.820;4.548;2023-05-27T06:11:10;13.50;;;4.70;;
11582;SDS011;34299;50.820;4.548;2023-05-27T06:13:39;10.30;;;4.50;;
11582;SDS011;34299;50.820;4.548;2023-05-27T06:16:06;9.00;;;4.50;;
11582;SDS011;34299;50.820;4.548;2023-05-27T06:18:33;10.57;;;4.50;;
11582;SDS011;34299;50.820;4.548;2023-05-27T06:21:00;17.47;;;4.90;;
11582;SDS011;34299;50.820;4.548;2023-05-27T06:23:28;11.77;;;4.90;;
11582;SDS011;34299;50.820;4.548;2023-05-27T06:25:55;8.33;;;4.67;;
11582;SDS011;34299;50.820;4.548;2023-05-27T06:28:22;12.60;;;5.20;;
11582;SDS011;34299;50.820;4.548;2023-05-27T06:30:51;12.60;;;4.53;;
11582;SDS011;34299;50.820;4.548;2023-05-27T06:33:19;13.37;;;5.27;;
11582;SDS011;34299;50.820;4.548;2023-05-27T06:35:46;11.90;;;4.50;;
11582;SDS011;34299;50.820;4.548;2023-05-27T06:38:13;9.50;;;4.30;;
11582;SDS011;34299;50.820;4.548;2023-05-27T06:40:40;9.20;;;4.23;;
11582;SDS011;34299;50.820;4.548;2023-05-27T06:43:07;10.07;;;4.90;;
11582;SDS011;34299;50.820;4.548;2023-05-27T06:45:35;15.37;;;5.60;;
11582;SDS011;34299;50.820;4.548;2023-05-27T06:48:03;13.60;;;5.07;;
11582;SDS011;34299;50.820;4.548;2023-05-27T06:50:31;14.47;;;5.07;;
11582;SDS011;34299;50.820;4.548;2023-05-27T06:52:58;14.07;;;5.73;;
11582;SDS011;34299;50.820;4.548;2023-05-27T06:55:25;11.57;;;4.50;;
11582;SDS011;34299;50.820;4.548;2023-05-27T06:57:52;11.67;;;5.23;;
11582;SDS011;34299;50.820;4.548;2023-05-27T07:00:20;13.67;;;4.80;;
11582;SDS011;34299;50.820;4.548;2023-05-27T07:02:47;12.10;;;5.33;;
11582;SDS011;34299;50.820;4.548;2023-05-27T07:05:15;12.00;;;5.13;;
11582;SDS011;34299;50.820;4.548;2023-05-27T07:07:43;13.07;;;4.83;;
11582;SDS011;34299;50.820;4.548;2023-05-27T07:10:10;10.70;;;4.43;;
11582;SDS011;34299;50.820;4.548;2023-05-27T07:12:37;9.13;;;4.97;;
11582;SDS011;34299;50.820;4.548;2023-05-27T07:15:05;10.97;;;4.90;;
11582;SDS011;34299;50.820;4.548;2023-05-27T07:17:32;16.03;;;5.47;;
11582;SDS011;34299;50.820;4.548;2023-05-27T07:19:59;14.60;;;5.57;;
11582;SDS011;34299;50.820;4.548;2023-05-27T07:22:28;16.47;;;4.80;;
11582;SDS011;34299;50.820;4.548;2023-05-27T07:24:55;9.77;;;4.30;;
11582;SDS011;34299;50.820;4.548;2023-05-27T07:27:23;11.33;;;4.93;;
11582;SDS011;34299;50.820;4.548;2023-05-27T07:29:50;14.73;;;4.80;;
11582;SDS011;34299;50.820;4.548;2023-05-27T07:32:17;13.67;;;4.73;;
11582;SDS011;34299;50.820;4.548;2023-05-27T07:34:44;18.50;;;5.00;;
11582;SDS011;34299;50.820;4.548;2023-05-27T07:37:12;11.30;;;4.87;;
11582;SDS011;34299;50.820;4.548;2023-05-27T07:39:40;10.53;;;4.33;;
11582;SDS011;34299;50.820;4.548;2023-05-27T07:42:07;10.03;;;4.43;;
11582;SDS011;34299;50.820;4.548;2023-05-27T07:44:35;13.87;;;4.40;;
11582;SDS011;34299;50.820;4.548;2023-05-27T07:47:02;9.47;;;4.20;;
11582;SDS011;34299;50.820;4.548;2023-05-27T07:49:29;10.07;;;4.33;;
11582;SDS011;34299;50.820;4.548;2023-05-27T07:51:56;13.43;;;4.47;;
11582;SDS011;34299;50.820;4.548;2023-05-27T07:54:24;9.50;;;4.77;;
11582;SDS011;34299;50.820;4.548;2023-05-27T07:56:53;7.97;;;4.50;;
11582;SDS011;34299;50.820;4.548;2023-05-27T07:59:22;15.80;;;4.70;;
11582;SDS011;34299;50.820;4.548;2023-05-27T08:01:50;14.53;;;4.80;;
11582;SDS011;34299;50.820;4.548;2023-05-27T08:04:17;15.23;;;5.80;;
11582;SDS011;34299;50.820;4.548;2023-05-27T08:06:44;18.00;;;4.97;;
11582;SDS011;34299;50.820;4.548;2023-05-27T08:09:11;13.60;;;4.83;;
11582;SDS011;34299;50.820;4.548;2023-05-27T08:11:39;13.47;;;4.17;;
11582;SDS011;34299;50.820;4.548;2023-05-27T08:14:07;10.50;;;4.77;;
11582;SDS011;34299;50.820;4.548;2023-05-27T08:16:35;9.37;;;5.23;;
11582;SDS011;34299;50.820;4.548;2023-05-27T08:19:03;13.40;;;4.87;;
11582;SDS011;34299;50.820;4.548;2023-05-27T08:21:30;13.53;;;4.37;;
11582;SDS011;34299;50.820;4.548;2023-05-27T08:23:57;9.07;;;4.47;;
11582;SDS011;34299;50.820;4.548;2023-05-27T08:26:25;9.37;;;4.33;;
11582;SDS011;34299;50.820;4.548;2023-05-27T08:28:52;11.23;;;4.50;;
11582;SDS011;34299;50.820;4.548;2023-05-27T08:31:21;10.80;;;4.30;;
11582;SDS011;34299;50.820;4.548;2023-05-27T08:33:48;10.10;;;4.50;;
11582;SDS011;34299;50.820;4.548;2023-05-27T08:36:15;9.70;;;4.43;;
11582;SDS011;34299;50.820;4.548;2023-05-27T08:38:44;7.40;;;3.60;;
11582;SDS011;34299;50.820;4.548;2023-05-27T08:41:11;10.53;;;4.93;;
11582;SDS011;34299;50.820;4.548;2023-05-27T08:43:39;7.80;;;4.13;;
11582;SDS011;34299;50.820;4.548;2023-05-27T08:46:06;8.37;;;3.97;;
11582;SDS011;34299;50.820;4.548;2023-05-27T08:48:36;15.27;;;4.90;;
11582;SDS011;34299;50.820;4.548;2023-05-27T08:51:03;13.20;;;3.73;;
11582;SDS011;34299;50.820;4.548;2023-05-27T08:53:32;8.60;;;4.50;;
11582;SDS011;34299;50.820;4.548;2023-05-27T08:55:59;8.10;;;4.07;;
11582;SDS011;34299;50.820;4.548;2023-05-27T08:58:27;10.93;;;4.50;;
11582;SDS011;34299;50.820;4.548;2023-05-27T09:00:55;15.90;;;4.33;;
11582;SDS011;34299;50.820;4.548;2023-05-27T09:03:23;10.33;;;4.80;;
11582;SDS011;34299;50.820;4.548;2023-05-27T09:05:53;10.60;;;4.30;;
11582;SDS011;34299;50.820;4.548;2023-05-27T09:08:21;12.43;;;4.60;;
11582;SDS011;34299;50.820;4.548;2023-05-27T09:10:49;9.37;;;4.43;;
11582;SDS011;34299;50.820;4.548;2023-05-27T09:13:25;9.80;;;4.57;;
11582;SDS011;34299;50.820;4.548;2023-05-27T09:15:57;9.67;;;4.53;;
11582;SDS011;34299;50.820;4.548;2023-05-27T09:18:26;9.63;;;4.20;;
11582;SDS011;34299;50.820;4.548;2023-05-27T09:20:56;8.80;;;4.47;;
11582;SDS011;34299;50.820;4.548;2023-05-27T09:23:23;12.60;;;4.50;;
11582;SDS011;34299;50.820;4.548;2023-05-27T09:25:50;10.03;;;4.03;;
11582;SDS011;34299;50.820;4.548;2023-05-27T09:28:21;11.17;;;4.20;;
11582;SDS011;34299;50.820;4.548;2023-05-27T09:30:58;10.53;;;4.07;;
11582;SDS011;34299;50.820;4.548;2023-05-27T09:33:26;12.07;;;4.33;;
11582;SDS011;34299;50.820;4.548;2023-05-27T09:35:53;8.77;;;4.27;;
11582;SDS011;34299;50.820;4.548;2023-05-27T09:38:22;11.63;;;4.27;;
11582;SDS011;34299;50.820;4.548;2023-05-27T09:40:49;11.63;;;4.50;;
11582;SDS011;34299;50.820;4.548;2023-05-27T09:43:16;14.50;;;4.20;;
11582;SDS011;34299;50.820;4.548;2023-05-27T09:45:44;7.07;;;4.40;;
11582;SDS011;34299;50.820;4.548;2023-05-27T09:48:12;11.47;;;4.53;;
11582;SDS011;34299;50.820;4.548;2023-05-27T09:50:40;8.90;;;4.10;;
11582;SDS011;34299;50.820;4.548;2023-05-27T09:53:07;7.87;;;3.90;;
11582;SDS011;34299;50.820;4.548;2023-05-27T09:55:36;8.60;;;4.10;;
11582;SDS011;34299;50.820;4.548;2023-05-27T09:58:04;9.97;;;4.33;;
11582;SDS011;34299;50.820;4.548;2023-05-27T10:00:32;9.73;;;4.50;;
11582;SDS011;34299;50.820;4.548;2023-05-27T10:03:00;12.07;;;4.37;;
11582;SDS011;34299;50.820;4.548;2023-05-27T10:05:28;9.30;;;4.00;;
11582;SDS011;34299;50.820;4.548;2023-05-27T10:07:56;11.73;;;4.43;;
11582;SDS011;34299;50.820;4.548;2023-05-27T10:10:23;11.17;;;4.17;;
11582;SDS011;34299;50.820;4.548;2023-05-27T10:12:52;9.87;;;4.30;;
11582;SDS011;34299;50.820;4.548;2023-05-27T10:15:21;13.37;;;4.40;;
11582;SDS011;34299;50.820;4.548;2023-05-27T10:17:49;14.23;;;4.27;;
11582;SDS011;34299;50.820;4.548;2023-05-27T10:20:28;9.13;;;4.07;;
11582;SDS011;34299;50.820;4.548;2023-05-27T10:22:57;7.47;;;3.20;;
11582;SDS011;34299;50.820;4.548;2023-05-27T10:25:34;7.90;;;3.23;;
11582;SDS011;34299;50.820;4.548;2023-05-27T10:28:03;8.53;;;4.27;;
11582;SDS011;34299;50.820;4.548;2023-05-27T10:30:41;9.77;;;3.70;;
11582;SDS011;34299;50.820;4.548;2023-05-27T10:33:09;10.47;;;4.37;;
11582;SDS011;34299;50.820;4.548;2023-05-27T10:35:38;9.93;;;4.23;;
11582;SDS011;34299;50.820;4.548;2023-05-27T10:38:13;11.07;;;4.00;;
11582;SDS011;34299;50.820;4.548;2023-05-27T10:40:40;12.97;;;3.87;;
11582;SDS011;34299;50.820;4.548;2023-05-27T10:43:16;10.50;;;3.53;;
11582;SDS011;34299;50.820;4.548;2023-05-27T10:45:43;8.57;;;3.83;;
11582;SDS011;34299;50.820;4.548;2023-05-27T10:48:20;9.47;;;4.03;;
11582;SDS011;34299;50.820;4.548;2023-05-27T10:50:50;9.87;;;4.30;;
11582;SDS011;34299;50.820;4.548;2023-05-27T10:53:18;8.77;;;3.63;;
11582;SDS011;34299;50.820;4.548;2023-05-27T10:55:47;11.70;;;4.00;;
11582;SDS011;34299;50.820;4.548;2023-05-27T10:58:16;12.00;;;3.70;;
11582;SDS011;34299;50.820;4.548;2023-05-27T11:00:44;8.80;;;2.97;;
11582;SDS011;34299;50.820;4.548;2023-05-27T11:03:22;9.23;;;3.60;;
11582;SDS011;34299;50.820;4.548;2023-05-27T11:05:59;5.50;;;2.90;;
11582;SDS011;34299;50.820;4.548;2023-05-27T11:08:26;9.53;;;3.13;;
11582;SDS011;34299;50.820;4.548;2023-05-27T11:10:57;10.17;;;3.13;;
11582;SDS011;34299;50.820;4.548;2023-05-27T11:13:30;7.80;;;3.20;;
11582;SDS011;34299;50.820;4.548;2023-05-27T11:15:58;11.30;;;3.43;;
11582;SDS011;34299;50.820;4.548;2023-05-27T11:18:33;10.03;;;3.20;;
11582;SDS011;34299;50.820;4.548;2023-05-27T11:21:00;9.60;;;3.43;;
11582;SDS011;34299;50.820;4.548;2023-05-27T11:23:38;9.10;;;3.40;;
11582;SDS011;34299;50.820;4.548;2023-05-27T11:26:15;8.03;;;3.00;;
11582;SDS011;34299;50.820;4.548;2023-05-27T11:28:48;5.43;;;2.70;;
11582;SDS011;34299;50.820;4.548;2023-05-27T11:31:15;7.57;;;3.10;;
11582;SDS011;34299;50.820;4.548;2023-05-27T11:33:43;8.60;;;2.60;;
11582;SDS011;34299;50.820;4.548;2023-05-27T11:36:11;7.33;;;2.83;;
11582;SDS011;34299;50.820;4.548;2023-05-27T11:38:51;8.07;;;3.17;;
11582;SDS011;34299;50.820;4.548;2023-05-27T11:41:19;6.40;;;2.67;;
11582;SDS011;34299;50.820;4.548;2023-05-27T11:43:49;8.13;;;3.30;;
11582;SDS011;34299;50.820;4.548;2023-05-27T11:46:16;7.17;;;3.07;;
11582;SDS011;34299;50.820;4.548;2023-05-27T11:48:44;5.93;;;2.90;;
11582;SDS011;34299;50.820;4.548;2023-05-27T11:51:11;5.77;;;2.80;;
11582;SDS011;34299;50.820;4.548;2023-05-27T11:53:39;7.97;;;2.90;;
11582;SDS011;34299;50.820;4.548;2023-05-27T11:56:07;6.80;;;2.90;;
11582;SDS011;34299;50.820;4.548;2023-05-27T11:58:34;7.33;;;2.70;;
11582;SDS011;34299;50.820;4.548;2023-05-27T12:01:03;7.70;;;3.43;;
11582;SDS011;34299;50.820;4.548;2023-05-27T12:03:32;8.13;;;2.97;;
11582;SDS011;34299;50.820;4.548;2023-05-27T12:06:00;5.77;;;3.07;;
11582;SDS011;34299;50.820;4.548;2023-05-27T12:08:28;10.00;;;3.00;;
11582;SDS011;34299;50.820;4.548;2023-05-27T12:10:55;7.60;;;3.40;;
11582;SDS011;34299;50.820;4.548;2023-05-27T12:13:23;8.87;;;3.30;;
11582;SDS011;34299;50.820;4.548;2023-05-27T12:15:51;7.37;;;2.93;;
11582;SDS011;34299;50.820;4.548;2023-05-27T12:18:19;8.63;;;2.67;;
11582;SDS011;34299;50.820;4.548;2023-05-27T12:20:47;5.87;;;2.93;;
11582;SDS011;34299;50.820;4.548;2023-05-27T12:23:14;6.70;;;3.27;;
11582;SDS011;34299;50.820;4.548;2023-05-27T12:25:41;9.37;;;3.43;;
11582;SDS011;34299;50.820;4.548;2023-05-27T12:28:09;11.37;;;3.07;;
11582;SDS011;34299;50.820;4.548;2023-05-27T12:30:36;9.90;;;2.83;;
11582;SDS011;34299;50.820;4.548;2023-05-27T12:33:04;10.00;;;2.97;;
11582;SDS011;34299;50.820;4.548;2023-05-27T12:35:33;6.73;;;2.70;;
11582;SDS011;34299;50.820;4.548;2023-05-27T12:38:00;6.53;;;2.87;;
11582;SDS011;34299;50.820;4.548;2023-05-27T12:40:27;9.27;;;3.23;;
11582;SDS011;34299;50.820;4.548;2023-05-27T12:42:55;8.97;;;2.90;;
11582;SDS011;34299;50.820;4.548;2023-05-27T12:45:23;7.73;;;3.07;;
11582;SDS011;34299;50.820;4.548;2023-05-27T12:47:51;8.10;;;2.83;;
11582;SDS011;34299;50.820;4.548;2023-05-27T12:50:18;5.23;;;2.47;;
11582;SDS011;34299;50.820;4.548;2023-05-27T12:52:47;5.43;;;2.30;;
11582;SDS011;34299;50.820;4.548;2023-05-27T12:55:17;7.53;;;3.00;;
11582;SDS011;34299;50.820;4.548;2023-05-27T12:57:44;7.73;;;2.53;;
11582;SDS011;34299;50.820;4.548;2023-05-27T13:00:12;8.57;;;3.23;;
11582;SDS011;34299;50.820;4.548;2023-05-27T13:02:39;6.00;;;2.80;;
11582;SDS011;34299;50.820;4.548;2023-05-27T13:05:08;5.37;;;3.03;;
11582;SDS011;34299;50.820;4.548;2023-05-27T13:07:35;7.57;;;2.77;;
11582;SDS011;34299;50.820;4.548;2023-05-27T13:10:06;8.57;;;3.10;;
11582;SDS011;34299;50.820;4.548;2023-05-27T13:12:33;6.17;;;2.83;;
11582;SDS011;34299;50.820;4.548;2023-05-27T13:15:01;5.47;;;2.77;;
11582;SDS011;34299;50.820;4.548;2023-05-27T13:17:29;9.50;;;2.80;;
11582;SDS011;34299;50.820;4.548;2023-05-27T13:19:56;6.93;;;2.80;;
11582;SDS011;34299;50.820;4.548;2023-05-27T13:22:23;6.00;;;2.67;;
11582;SDS011;34299;50.820;4.548;2023-05-27T13:24:51;5.97;;;2.53;;
11582;SDS011;34299;50.820;4.548;2023-05-27T13:27:19;9.40;;;3.10;;
11582;SDS011;34299;50.820;4.548;2023-05-27T13:29:46;9.40;;;3.03;;
11582;SDS011;34299;50.820;4.548;2023-05-27T13:32:13;7.63;;;2.90;;
11582;SDS011;34299;50.820;4.548;2023-05-27T13:34:41;6.17;;;2.67;;
11582;SDS011;34299;50.820;4.548;2023-05-27T13:37:08;7.30;;;2.77;;
11582;SDS011;34299;50.820;4.548;2023-05-27T13:39:35;8.73;;;3.10;;
11582;SDS011;34299;50.820;4.548;2023-05-27T13:42:07;9.37;;;3.13;;
11582;SDS011;34299;50.820;4.548;2023-05-27T13:44:36;5.00;;;2.57;;
11582;SDS011;34299;50.820;4.548;2023-05-27T13:47:03;8.57;;;2.50;;
11582;SDS011;34299;50.820;4.548;2023-05-27T13:49:31;9.07;;;2.97;;
11582;SDS011;34299;50.820;4.548;2023-05-27T13:51:58;7.47;;;2.70;;
11582;SDS011;34299;50.820;4.548;2023-05-27T13:54:26;6.43;;;2.77;;
11582;SDS011;34299;50.820;4.548;2023-05-27T13:56:53;4.73;;;2.27;;
11582;SDS011;34299;50.820;4.548;2023-05-27T13:59:20;10.17;;;2.97;;
11582;SDS011;34299;50.820;4.548;2023-05-27T14:01:49;7.93;;;2.73;;
11582;SDS011;34299;50.820;4.548;2023-05-27T14:04:16;8.60;;;2.90;;
11582;SDS011;34299;50.820;4.548;2023-05-27T14:06:45;8.93;;;2.77;;
11582;SDS011;34299;50.820;4.548;2023-05-27T14:09:13;6.23;;;3.20;;
11582;SDS011;34299;50.820;4.548;2023-05-27T14:11:40;6.47;;;2.63;;
11582;SDS011;34299;50.820;4.548;2023-05-27T14:14:07;5.33;;;2.30;;
11582;SDS011;34299;50.820;4.548;2023-05-27T14:16:34;7.03;;;2.47;;
11582;SDS011;34299;50.820;4.548;2023-05-27T14:19:03;8.30;;;2.90;;
11582;SDS011;34299;50.820;4.548;2023-05-27T14:21:30;6.10;;;2.50;;
11582;SDS011;34299;50.820;4.548;2023-05-27T14:23:58;5.67;;;2.93;;
11582;SDS011;34299;50.820;4.548;2023-05-27T14:26:25;5.20;;;2.67;;
11582;SDS011;34299;50.820;4.548;2023-05-27T14:28:53;6.10;;;2.87;;
11582;SDS011;34299;50.820;4.548;2023-05-27T14:31:20;5.97;;;3.10;;
11582;SDS011;34299;50.820;4.548;2023-05-27T14:33:47;10.77;;;3.20;;
11582;SDS011;34299;50.820;4.548;2023-05-27T14:36:16;5.00;;;2.70;;
11582;SDS011;34299;50.820;4.548;2023-05-27T14:38:43;7.70;;;2.63;;
11582;SDS011;34299;50.820;4.548;2023-05-27T14:41:10;8.33;;;2.57;;
11582;SDS011;34299;50.820;4.548;2023-05-27T14:43:37;9.27;;;2.70;;
11582;SDS011;34299;50.820;4.548;2023-05-27T14:46:05;8.07;;;2.47;;
11582;SDS011;34299;50.820;4.548;2023-05-27T14:48:32;5.83;;;2.73;;